Time;durP1;ratioP1;P1;durP2;ratioP2;P2;SDS_P1;SDS_P2;PMS_P1;PMS_P2;Temp;Humidity;BMP_temperature;BMP_pressure;BME280_temperature;BME280_humidity;BME280_pressure;Samples;Min_cycle;Max_cycle;Signal;HPM_P1;HPM_P2
2022/01/10 00:02:14;;;;;;;30.88;16.70;;;;;;;7.57;82.41;100532.78;5093899;28;20051;-67
2022/01/10 00:04:41;;;;;;;25.63;16.60;;;;;;;7.46;81.72;100536.00;5093875;28;20520;-67
2022/01/10 00:07:09;;;;;;;27.70;16.92;;;;;;;7.30;82.58;100551.03;5093580;28;20050;-66
2022/01/10 00:09:37;;;;;;;27.60;17.17;;;;;;;7.31;82.56;100547.16;5095139;28;20055;-67
2022/01/10 00:12:04;;;;;;;29.33;17.35;;;;;;;7.13;82.82;100551.53;5095937;28;20059;-67
2022/01/10 00:14:35;;;;;;;27.42;16.67;;;;;;;7.30;83.28;100560.06;5095901;28;20569;-67
2022/01/10 00:17:04;;;;;;;28.08;16.92;;;;;;;7.29;82.95;100571.28;5094355;28;20052;-66
2022/01/10 00:19:31;;;;;;;35.63;18.02;;;;;;;7.10;83.59;100571.28;5095601;28;20047;-67
2022/01/10 00:21:59;;;;;;;28.30;18.00;;;;;;;7.08;83.70;100583.66;5096086;28;20055;-68
2022/01/10 00:24:26;;;;;;;33.05;17.70;;;;;;;7.18;83.36;100583.53;5095745;28;20487;-68
2022/01/10 00:26:53;;;;;;;28.77;15.85;;;;;;;7.27;83.46;100584.50;5095584;28;20054;-67
2022/01/10 00:29:21;;;;;;;26.08;15.05;;;;;;;7.19;83.04;100580.47;5094641;28;20052;-67
2022/01/10 00:31:48;;;;;;;26.10;13.82;;;;;;;7.44;82.68;100576.59;5078438;28;20063;-67
2022/01/10 00:34:16;;;;;;;28.00;16.08;;;;;;;7.44;82.42;100574.66;5095624;28;20632;-67
2022/01/10 00:36:43;;;;;;;26.20;14.95;;;;;;;7.51;81.93;100582.50;5077292;28;20055;-67
2022/01/10 00:39:11;;;;;;;25.58;15.52;;;;;;;7.64;81.79;100589.97;5094999;28;20059;-67
2022/01/10 00:41:38;;;;;;;24.48;14.52;;;;;;;7.67;81.27;100590.19;5077223;28;20062;-67
2022/01/10 00:44:05;;;;;;;26.73;15.18;;;;;;;7.74;81.32;100589.84;5095463;28;20044;-66
2022/01/10 00:46:32;;;;;;;25.20;14.60;;;;;;;7.82;80.52;100595.47;5095155;28;20067;-68
2022/01/10 00:49:00;;;;;;;27.85;14.52;;;;;;;7.80;80.79;100600.44;5095389;28;20055;-67
2022/01/10 00:51:27;;;;;;;21.27;12.55;;;;;;;7.47;81.66;100598.72;5094080;28;20052;-66
2022/01/10 00:53:55;;;;;;;18.35;9.73;;;;;;;7.18;82.34;100603.53;5092892;28;20051;-66
2022/01/10 00:56:22;;;;;;;22.88;10.80;;;;;;;7.45;82.23;100600.94;5089001;28;20048;-67
2022/01/10 00:58:49;;;;;;;19.88;10.30;;;;;;;7.46;81.68;100602.56;5095348;28;20048;-66
2022/01/10 01:01:18;;;;;;;20.95;8.65;;;;;;;7.49;81.59;100612.13;5095413;28;20055;-67
2022/01/10 01:03:47;;;;;;;22.63;10.38;;;;;;;7.65;81.51;100602.59;5094012;28;20048;-67
2022/01/10 01:06:15;;;;;;;19.83;10.82;;;;;;;7.64;81.31;100601.75;5077141;28;20044;-67
2022/01/10 01:08:43;;;;;;;23.83;10.70;;;;;;;7.61;81.68;100618.00;5094560;28;20040;-67
2022/01/10 01:11:34;;;;;;;19.80;10.85;;;;;;;7.55;81.67;100617.25;5095273;28;20059;-67
2022/01/10 01:14:05;;;;;;;18.67;10.35;;;;;;;7.55;81.94;100630.16;5095270;28;20040;-67
2022/01/10 01:24:32;;;;;;;24.63;12.38;;;;;;;7.51;82.44;100646.38;5095070;28;20643;-68
2022/01/10 01:27:00;;;;;;;21.67;12.20;;;;;;;7.78;81.99;100659.41;5093535;28;20070;-68
2022/01/10 01:29:29;;;;;;;21.60;11.45;;;;;;;7.79;81.06;100656.34;5094809;28;20048;-68
2022/01/10 01:31:57;;;;;;;21.63;11.88;;;;;;;7.72;81.34;100657.84;5097558;28;20082;-67
2022/01/10 01:34:25;;;;;;;23.17;11.93;;;;;;;7.79;81.16;100661.84;5097522;28;20048;-67
2022/01/10 01:36:54;;;;;;;25.13;11.82;;;;;;;7.52;81.95;100674.56;5093747;28;20056;-66
2022/01/10 01:39:25;;;;;;;22.98;10.68;;;;;;;7.74;81.42;100678.38;5097265;28;20062;-67
2022/01/10 01:42:05;;;;;;;21.60;11.05;;;;;;;7.70;81.79;100676.53;5103286;28;20044;-68
2022/01/10 01:44:34;;;;;;;22.98;11.95;;;;;;;7.81;81.40;100681.56;5081730;28;20044;-68
2022/01/10 01:47:03;;;;;;;21.27;11.35;;;;;;;7.91;81.07;100686.09;5097245;28;20051;-66
2022/01/10 01:49:30;;;;;;;21.10;11.48;;;;;;;7.73;81.28;100687.72;5098529;28;20067;-67
2022/01/10 01:51:57;;;;;;;29.77;12.23;;;;;;;7.53;82.01;100698.13;5098824;28;20074;-67
2022/01/10 01:54:25;;;;;;;21.73;11.90;;;;;;;7.51;82.47;100711.31;5090734;28;20060;-67
2022/01/10 01:56:52;;;;;;;25.55;11.63;;;;;;;7.64;82.06;100705.09;5080318;28;20052;-68
2022/01/10 01:59:20;;;;;;;23.92;11.75;;;;;;;7.60;82.07;100699.38;5096371;28;20060;-69
2022/01/10 02:01:47;;;;;;;24.90;10.40;;;;;;;7.87;81.31;100705.06;5080726;28;20052;-67
2022/01/10 02:04:15;;;;;;;22.17;9.45;;;;;;;8.00;80.15;100703.53;5096893;28;20384;-67
2022/01/10 02:06:45;;;;;;;19.30;10.38;;;;;;;7.76;80.97;100705.47;5076274;28;20045;-67
2022/01/10 02:09:14;;;;;;;24.20;10.80;;;;;;;7.89;80.96;100711.06;5076186;28;20048;-67
2022/01/10 02:11:44;;;;;;;18.25;10.60;;;;;;;7.96;80.83;100711.53;5075478;28;20063;-67
2022/01/10 02:14:15;;;;;;;21.02;11.57;;;;;;;7.92;80.14;100706.91;5076365;28;20075;-67
2022/01/10 02:16:45;;;;;;;22.33;10.88;;;;;;;7.51;80.85;100725.03;5076464;28;20045;-67
2022/01/10 02:19:25;;;;;;;19.48;10.25;;;;;;;7.49;82.58;100719.00;5079743;28;20040;-67
2022/01/10 02:21:53;;;;;;;21.92;10.65;;;;;;;7.66;81.76;100727.56;5097907;28;20495;-67
2022/01/10 02:24:23;;;;;;;21.13;10.38;;;;;;;7.64;81.24;100727.03;5096475;28;20051;-67
2022/01/10 02:26:54;;;;;;;20.40;9.88;;;;;;;7.85;81.36;100720.16;5096777;28;20052;-68
2022/01/10 02:29:21;;;;;;;20.02;10.63;;;;;;;7.97;80.28;100717.81;5079972;28;20774;-66
2022/01/10 02:31:49;;;;;;;22.00;10.45;;;;;;;8.10;79.55;100721.75;5097981;28;20048;-68
2022/01/10 02:34:19;;;;;;;19.20;10.40;;;;;;;7.99;79.76;100721.06;5096822;28;20055;-66
2022/01/10 02:36:46;;;;;;;23.38;11.55;;;;;;;7.69;80.95;100716.81;5097156;28;20049;-66
2022/01/10 02:39:19;;;;;;;23.50;11.77;;;;;;;7.62;81.64;100721.84;5097313;28;20055;-66
2022/01/10 02:41:46;;;;;;;25.35;11.13;;;;;;;7.75;81.23;100723.06;5096272;28;20056;-66
2022/01/10 02:44:15;;;;;;;20.67;11.88;;;;;;;7.76;81.29;100733.72;5096414;28;20052;-67
2022/01/10 02:46:45;;;;;;;20.67;10.75;;;;;;;7.76;80.93;100738.38;5095844;28;20048;-67
2022/01/10 02:49:32;;;;;;;21.60;10.57;;;;;;;7.41;82.12;100744.34;5081961;28;20048;-67
2022/01/10 02:52:00;;;;;;;19.40;9.77;;;;;;;7.46;81.88;100739.59;5095933;28;20063;-67
2022/01/10 02:54:29;;;;;;;21.27;10.95;;;;;;;7.37;82.73;100748.75;5095733;28;20055;-67
2022/01/10 02:56:58;;;;;;;19.37;10.77;;;;;;;7.36;82.64;100758.06;5079117;28;20055;-67
2022/01/10 02:59:28;;;;;;;25.00;10.73;;;;;;;7.38;82.25;100764.06;5079426;28;20048;-67
2022/01/10 03:01:56;;;;;;;23.80;10.82;;;;;;;7.46;82.83;100771.66;5097453;28;20410;-66
2022/01/10 03:04:25;;;;;;;21.13;10.63;;;;;;;7.70;81.88;100765.06;5063481;28;20518;-66
2022/01/10 03:06:52;;;;;;;20.80;10.48;;;;;;;7.63;81.18;100775.56;5097026;28;20056;-67
2022/01/10 03:09:20;;;;;;;18.70;9.73;;;;;;;7.48;82.17;100775.75;5095396;28;20063;-68
2022/01/10 03:11:48;;;;;;;20.73;10.68;;;;;;;7.47;82.40;100776.03;5078838;28;20479;-68
2022/01/10 03:14:16;;;;;;;20.92;9.77;;;;;;;7.60;81.60;100778.09;5095816;28;20495;-67
2022/01/10 03:16:43;;;;;;;17.83;9.27;;;;;;;7.64;81.78;100774.47;5095331;28;20066;-66
2022/01/10 03:19:10;;;;;;;21.35;9.73;;;;;;;7.55;81.70;100776.19;5091862;28;20051;-69
2022/01/10 03:21:38;;;;;;;21.67;9.18;;;;;;;7.58;81.56;100780.31;5041884;28;20056;-67
2022/01/10 03:24:05;;;;;;;16.10;8.95;;;;;;;7.58;81.46;100780.31;5091872;28;20048;-66
2022/01/10 03:26:33;;;;;;;22.85;9.45;;;;;;;7.57;81.86;100775.91;5082416;28;20503;-68
2022/01/10 03:29:03;;;;;;;20.08;9.68;;;;;;;7.47;81.62;100787.81;5078856;28;20048;-66
2022/01/10 03:31:31;;;;;;;19.73;10.20;;;;;;;7.48;82.04;100783.16;5062131;28;20048;-66
2022/01/10 03:33:59;;;;;;;20.42;10.27;;;;;;;7.42;81.86;100793.34;5079060;28;20048;-67
2022/01/10 03:36:29;;;;;;;21.58;10.43;;;;;;;7.30;82.49;100800.34;5062095;28;20052;-67
2022/01/10 03:38:57;;;;;;;19.80;11.05;;;;;;;7.28;83.02;100808.84;5094856;28;20044;-67
2022/01/10 03:41:24;;;;;;;22.73;10.63;;;;;;;7.26;82.54;100812.97;5094554;28;20055;-67
2022/01/10 03:43:51;;;;;;;23.33;11.27;;;;;;;7.11;83.27;100811.22;5077450;28;20048;-67
2022/01/10 03:46:19;;;;;;;24.40;12.05;;;;;;;7.27;83.22;100815.41;5095462;28;20059;-67
2022/01/10 03:48:46;;;;;;;21.80;12.07;;;;;;;7.34;82.67;100812.34;5094126;28;20044;-67
2022/01/10 03:51:14;;;;;;;22.55;12.38;;;;;;;7.46;81.86;100826.47;5095497;28;20064;-67
2022/01/10 03:53:41;;;;;;;27.73;13.57;;;;;;;7.42;81.98;100823.50;5094318;28;20060;-66
2022/01/10 03:56:08;;;;;;;22.23;12.75;;;;;;;7.48;81.98;100832.50;5073311;28;20052;-67
2022/01/10 03:58:38;;;;;;;21.52;12.88;;;;;;;7.59;81.98;100836.75;5094512;28;20075;-67
2022/01/10 04:01:08;;;;;;;22.40;12.43;;;;;;;7.58;81.32;100838.66;5094758;28;20056;-67
2022/01/10 04:03:38;;;;;;;22.45;14.52;;;;;;;7.21;82.36;100840.41;5094249;28;20052;-67
2022/01/10 04:06:12;;;;;;;29.67;16.15;;;;;;;7.10;83.17;100845.16;5095000;28;20059;-66
2022/01/10 04:08:39;;;;;;;24.63;15.23;;;;;;;7.09;84.48;100846.28;5094030;28;20435;-68
2022/01/10 04:11:07;;;;;;;24.83;16.20;;;;;;;7.03;83.96;100857.53;5094781;28;20047;-67
2022/01/10 04:13:35;;;;;;;29.27;16.88;;;;;;;6.91;84.00;100857.09;5095863;28;20054;-67
2022/01/10 04:16:03;;;;;;;27.75;16.60;;;;;;;6.66;85.33;100852.63;5061406;28;20056;-67
2022/01/10 04:18:31;;;;;;;27.85;16.25;;;;;;;6.78;86.05;100851.16;5094411;28;20082;-68
2022/01/10 04:20:58;;;;;;;30.35;16.63;;;;;;;6.92;85.17;100859.59;5095528;28;20459;-67
2022/01/10 04:23:26;;;;;;;26.48;16.23;;;;;;;6.95;84.90;100866.38;5095146;28;20063;-68
2022/01/10 04:25:53;;;;;;;30.30;17.05;;;;;;;6.87;84.85;100870.53;5094473;28;20051;-67
2022/01/10 04:28:20;;;;;;;26.00;17.23;;;;;;;6.85;85.04;100865.34;5077612;28;20056;-67
2022/01/10 04:30:48;;;;;;;30.00;17.77;;;;;;;6.67;85.63;100868.78;5094325;28;20044;-69
2022/01/10 04:33:18;;;;;;;27.27;17.42;;;;;;;6.93;85.23;100877.63;5094563;28;20044;-67
2022/01/10 04:35:48;;;;;;;29.08;17.88;;;;;;;6.61;85.78;100878.13;5094215;28;20161;-66
2022/01/10 04:38:16;;;;;;;28.27;17.98;;;;;;;6.63;86.43;100881.41;5093841;28;20059;-67
2022/01/10 04:40:44;;;;;;;30.52;19.42;;;;;;;6.40;87.34;100882.06;5095594;28;20133;-67
2022/01/10 04:43:13;;;;;;;31.02;18.90;;;;;;;6.67;87.22;100884.38;5092282;28;20044;-68
2022/01/10 04:45:42;;;;;;;29.63;18.38;;;;;;;6.72;86.12;100889.81;5075299;28;20052;-67
2022/01/10 04:48:10;;;;;;;30.63;18.48;;;;;;;6.34;87.50;100896.88;5074066;28;20041;-66
2022/01/10 04:53:16;;;;;;;31.65;17.75;;;;;;;6.48;87.11;100908.88;5091283;28;20055;-67
2022/01/10 04:55:43;;;;;;;31.38;17.02;;;;;;;6.77;86.62;100909.78;5093892;28;20574;-67
2022/01/10 04:58:17;;;;;;;28.13;17.13;;;;;;;6.76;85.73;100913.59;5094156;28;20056;-67
2022/01/10 05:00:44;;;;;;;28.83;17.25;;;;;;;6.94;85.00;100923.06;5076986;28;20056;-67
2022/01/10 05:03:12;;;;;;;29.70;17.70;;;;;;;6.72;85.06;100922.66;5093804;28;20044;-67
2022/01/10 05:05:39;;;;;;;33.95;18.48;;;;;;;6.58;85.84;100929.88;5093060;28;20048;-66
2022/01/10 05:08:09;;;;;;;34.45;19.35;;;;;;;6.44;86.48;100926.09;5080162;28;20385;-67
2022/01/10 05:10:37;;;;;;;;;;;;;;;6.50;86.90;100942.22;5098333;28;20044;-67
2022/01/10 05:13:04;;;;;;;31.40;20.25;;;;;;;6.64;86.14;100939.69;5098138;28;19920;-67
2022/01/10 05:15:31;;;;;;;33.88;19.90;;;;;;;6.63;85.93;100935.31;5097924;28;20048;-68
2022/01/10 05:17:58;;;;;;;33.55;20.17;;;;;;;6.59;85.86;100947.94;5099098;28;20044;-67
2022/01/10 05:20:26;;;;;;;34.47;20.23;;;;;;;6.36;87.36;100948.59;5097522;28;20059;-68
2022/01/10 05:22:54;;;;;;;32.47;20.05;;;;;;;6.48;87.31;100949.06;5097844;28;20055;-67
2022/01/10 05:25:21;;;;;;;27.27;18.88;;;;;;;6.62;86.99;100952.84;5097436;28;20051;-67
2022/01/10 05:27:48;;;;;;;28.13;18.95;;;;;;;6.84;85.85;100956.00;5079994;28;20079;-67
2022/01/10 05:30:15;;;;;;;34.22;18.70;;;;;;;6.94;84.75;100958.66;5097396;28;20045;-66
2022/01/10 05:32:44;;;;;;;31.25;20.10;;;;;;;6.57;85.33;100967.34;5097919;28;20052;-67
2022/01/10 05:35:24;;;;;;;28.92;18.48;;;;;;;6.63;85.79;100974.44;5098829;28;20048;-67
2022/01/10 05:37:52;;;;;;;27.73;19.65;;;;;;;6.74;85.23;100978.78;5097656;28;20136;-67
2022/01/10 05:40:19;;;;;;;30.50;19.98;;;;;;;6.83;84.12;100982.53;5097286;28;20052;-67
2022/01/10 05:42:47;;;;;;;32.05;19.73;;;;;;;6.75;84.60;100985.06;5097339;28;20052;-67
2022/01/10 05:45:14;;;;;;;30.90;20.70;;;;;;;6.32;85.39;100981.16;5078013;28;20052;-68
2022/01/10 05:47:44;;;;;;;32.13;21.20;;;;;;;6.03;87.32;100991.09;5060515;28;20049;-67
2022/01/10 05:50:17;;;;;;;29.88;21.15;;;;;;;6.37;86.80;101007.66;5069115;28;20502;-67
2022/01/10 05:52:46;;;;;;;35.55;20.80;;;;;;;6.40;86.37;100999.72;5098407;28;20052;-66
2022/01/10 05:55:15;;;;;;;31.97;20.00;;;;;;;6.44;86.38;100999.97;5092788;28;20096;-66
2022/01/10 05:57:46;;;;;;;29.95;20.27;;;;;;;6.54;86.06;101003.50;5076624;28;20622;-67
2022/01/10 06:00:14;;;;;;;31.65;20.55;;;;;;;6.62;85.16;101013.06;5077235;28;20056;-67
2022/01/10 06:02:41;;;;;;;30.08;20.05;;;;;;;6.66;84.76;101008.63;5091797;28;20479;-67
2022/01/10 06:05:18;;;;;;;32.60;21.45;;;;;;;6.49;85.41;101021.84;5080518;28;20074;-66
2022/01/10 06:07:49;;;;;;;31.60;21.00;;;;;;;6.51;85.41;101031.41;5095663;28;20060;-67
2022/01/10 06:10:16;;;;;;;33.13;20.77;;;;;;;6.55;85.07;101039.91;5095211;28;20055;-66
2022/01/10 06:12:43;;;;;;;30.45;20.10;;;;;;;6.66;84.72;101033.25;5095785;28;20499;-66
2022/01/10 06:15:11;;;;;;;37.63;21.08;;;;;;;6.62;84.56;101046.72;5095967;28;20052;-67
2022/01/10 06:17:43;;;;;;;29.17;20.85;;;;;;;6.57;84.46;101056.88;5095362;28;20067;-66
2022/01/10 06:20:10;;;;;;;36.13;22.08;;;;;;;6.16;85.81;101066.25;5096853;28;20518;-66
2022/01/10 06:22:38;;;;;;;35.42;22.08;;;;;;;6.04;86.30;101063.81;5078886;28;20519;-66
2022/01/10 06:25:11;;;;;;;34.45;21.77;;;;;;;6.11;87.47;101069.81;5095468;28;20511;-66
2022/01/10 06:27:39;;;;;;;34.85;21.50;;;;;;;6.19;87.20;101080.19;5097035;28;20514;-66
2022/01/10 06:30:07;;;;;;;37.03;22.17;;;;;;;6.23;86.46;101078.53;5078420;28;20052;-66
2022/01/10 06:32:38;;;;;;;31.98;21.65;;;;;;;6.20;86.40;101089.22;5095103;28;20067;-66
2022/01/10 06:35:08;;;;;;;32.70;21.30;;;;;;;6.07;87.02;101085.13;5095646;28;20044;-67
2022/01/10 06:37:36;;;;;;;34.47;22.38;;;;;;;6.06;87.80;101091.69;5095403;28;20071;-66
2022/01/10 06:40:05;;;;;;;35.00;23.00;;;;;;;6.19;87.31;101087.59;5094577;28;20052;-67
2022/01/10 06:42:34;;;;;;;38.40;23.17;;;;;;;6.08;87.59;101100.44;5095087;28;20059;-66
2022/01/10 06:45:03;;;;;;;34.15;23.90;;;;;;;6.14;87.33;101104.81;5095220;28;20059;-66
2022/01/10 06:47:30;;;;;;;46.08;27.63;;;;;;;6.01;87.36;101118.22;5087271;28;20041;-65
2022/01/10 06:49:58;;;;;;;52.97;30.40;;;;;;;6.06;87.37;101124.50;5073009;28;20047;-65
2022/01/10 06:52:26;;;;;;;52.28;30.45;;;;;;;5.92;87.70;101126.16;5094933;28;20044;-65
2022/01/10 06:54:54;;;;;;;49.13;30.17;;;;;;;5.72;88.79;101134.28;5094873;28;20506;-65
2022/01/10 06:57:22;;;;;;;53.53;30.00;;;;;;;5.74;89.74;101149.31;5097452;28;20143;-65
2022/01/10 07:01:31;;;;;;;56.05;28.90;;;;;;;5.58;90.25;101165.94;5116960;27;20779;-65
2022/01/10 07:04:03;;;;;;;55.30;30.00;;;;;;;5.87;89.64;101171.78;5118507;27;20450;-65
2022/01/10 07:06:31;;;;;;;54.45;30.45;;;;;;;5.69;89.35;101186.75;5124896;28;20063;-66
2022/01/10 07:09:03;;;;;;;57.35;31.25;;;;;;;5.75;89.75;101189.22;5099098;28;20051;-65
2022/01/10 07:11:38;;;;;;;57.35;31.60;;;;;;;5.69;89.53;101186.75;5099129;28;20055;-65
2022/01/10 07:14:06;;;;;;;62.03;31.85;;;;;;;5.66;90.37;101198.22;5123692;28;20406;-66
2022/01/10 07:16:34;;;;;;;58.15;29.98;;;;;;;5.81;89.62;101203.72;5103847;28;20058;-70
2022/01/10 07:19:06;;;;;;;53.55;30.45;;;;;;;6.07;88.64;101219.13;5120998;28;20085;-69
2022/01/10 07:21:39;;;;;;;59.58;29.60;;;;;;;6.33;88.83;101218.03;5130913;28;20406;-68
2022/01/10 07:24:08;;;;;;;49.58;28.48;;;;;;;6.30;88.20;101223.22;5123688;27;20047;-70
2022/01/10 07:26:35;;;;;;;56.13;26.35;;;;;;;6.10;87.54;101224.03;5113936;28;20046;-71
2022/01/10 07:29:04;;;;;;;49.38;25.10;;;;;;;6.23;87.49;101241.81;5113891;28;20047;-69
2022/01/10 07:31:31;;;;;;;45.33;23.63;;;;;;;6.00;87.86;101253.31;5123272;28;20559;-67
2022/01/10 07:33:58;;;;;;;47.10;21.88;;;;;;;5.75;88.63;101263.00;5116176;28;20054;-66
2022/01/10 07:36:26;;;;;;;44.25;20.38;;;;;;;5.55;89.71;101267.59;5123012;28;20044;-66
2022/01/10 07:38:53;;;;;;;41.05;20.27;;;;;;;5.39;89.89;101269.44;5114054;28;20051;-66
2022/01/10 07:41:20;;;;;;;38.20;18.67;;;;;;;5.47;90.58;101266.19;5114450;27;20051;-67
2022/01/10 07:43:48;;;;;;;37.72;17.38;;;;;;;5.48;90.12;101277.94;5140467;27;20054;-69
2022/01/10 07:46:15;;;;;;;33.20;16.17;;;;;;;5.27;90.66;101289.84;5133000;27;20494;-64
2022/01/10 07:48:44;;;;;;;38.72;17.38;;;;;;;5.24;91.14;101295.84;5114598;28;20047;-65
2022/01/10 07:51:12;;;;;;;35.17;17.48;;;;;;;5.19;91.33;101301.28;5113101;27;20498;-67
2022/01/10 07:53:40;;;;;;;38.08;17.80;;;;;;;5.16;91.26;101307.28;5120616;28;20376;-67
2022/01/10 07:56:08;;;;;;;37.65;17.85;;;;;;;5.11;91.82;101313.50;5113856;28;20051;-68
2022/01/10 07:58:36;;;;;;;39.97;18.27;;;;;;;5.11;92.19;101338.06;5118897;27;20051;-68
2022/01/10 08:01:04;;;;;;;38.97;20.40;;;;;;;5.08;92.31;101338.59;5116457;28;20129;-65
2022/01/10 08:03:32;;;;;;;36.85;18.77;;;;;;;5.14;92.66;101342.22;5117404;27;20070;-66
2022/01/10 08:05:59;;;;;;;35.60;19.60;;;;;;;4.75;92.45;101341.63;5112003;27;20047;-66
2022/01/10 08:08:28;;;;;;;37.53;19.17;;;;;;;5.00;91.59;101346.47;5113614;28;20048;-64
2022/01/10 08:10:55;;;;;;;33.83;17.45;;;;;;;4.83;92.15;101348.50;5113144;28;20513;-65
2022/01/10 08:13:23;;;;;;;30.65;17.58;;;;;;;4.75;92.14;101362.63;5099992;28;20485;-65
2022/01/10 08:15:50;;;;;;;35.88;20.63;;;;;;;4.82;92.03;101363.22;5113698;28;20051;-66
2022/01/10 08:18:18;;;;;;;31.10;18.13;;;;;;;4.89;91.71;101363.84;5097520;28;20044;-66
2022/01/10 08:20:45;;;;;;;31.40;18.02;;;;;;;4.85;91.29;101366.25;5103542;28;20632;-65
2022/01/10 08:23:13;;;;;;;31.70;19.00;;;;;;;4.78;91.74;101359.38;5101340;27;20051;-66
2022/01/10 08:25:41;;;;;;;35.13;20.40;;;;;;;4.68;92.11;101364.72;5111368;28;20581;-65
2022/01/10 08:28:08;;;;;;;33.05;19.90;;;;;;;4.67;92.21;101379.47;5105969;28;20521;-65
2022/01/10 08:30:36;;;;;;;37.03;19.95;;;;;;;4.67;91.70;101380.31;5098579;28;20040;-65
2022/01/10 08:33:03;;;;;;;32.53;20.65;;;;;;;4.54;92.31;101383.44;5098313;28;20148;-65
2022/01/10 08:35:30;;;;;;;36.60;20.63;;;;;;;4.93;92.11;101392.25;5102434;28;20984;-66
2022/01/10 08:37:58;;;;;;;40.65;21.30;;;;;;;5.16;90.83;101397.38;5111948;28;20054;-65
2022/01/10 08:40:30;;;;;;;54.08;29.15;;;;;;;5.07;90.44;101393.47;5105193;28;20432;-65
2022/01/10 08:42:57;;;;;;;57.88;31.83;;;;;;;4.78;90.55;101397.59;5096845;28;20094;-65
2022/01/10 08:45:24;;;;;;;52.50;25.88;;;;;;;5.03;90.81;101406.00;5108419;28;20047;-66
2022/01/10 08:47:52;;;;;;;45.83;24.88;;;;;;;4.91;90.47;101411.63;5106452;27;20055;-66
2022/01/10 08:50:19;;;;;;;44.42;24.73;;;;;;;4.94;90.76;101419.31;5096567;28;20459;-66
2022/01/10 08:52:48;;;;;;;46.35;24.25;;;;;;;4.84;90.02;101412.91;5095205;28;20068;-66
2022/01/10 08:55:15;;;;;;;46.15;24.20;;;;;;;4.68;89.87;101419.31;5110562;27;20058;-66
2022/01/10 08:57:43;;;;;;;45.90;24.00;;;;;;;4.76;90.18;101422.38;5135028;27;20058;-66
2022/01/10 09:00:10;;;;;;;40.60;23.83;;;;;;;4.87;90.23;101426.03;5109867;27;20048;-67
2022/01/10 09:02:38;;;;;;;42.10;23.20;;;;;;;4.77;89.52;101434.97;5107050;27;20056;-66
2022/01/10 09:05:08;;;;;;;42.08;23.27;;;;;;;4.71;90.04;101451.56;5096494;28;20044;-65
2022/01/10 09:07:36;;;;;;;40.07;23.63;;;;;;;4.66;89.70;101449.56;5105661;28;20422;-65
2022/01/10 09:10:04;;;;;;;44.17;24.55;;;;;;;4.68;90.38;101452.03;5096804;28;20044;-65
2022/01/10 09:12:32;;;;;;;42.53;23.88;;;;;;;4.71;90.64;101466.00;5099325;28;20044;-66
2022/01/10 09:14:59;;;;;;;39.03;21.55;;;;;;;4.76;90.14;101479.69;5105049;28;20059;-65
2022/01/10 09:17:26;;;;;;;30.77;18.55;;;;;;;5.06;89.62;101471.81;5104283;28;20048;-66
2022/01/10 09:19:54;;;;;;;29.33;16.35;;;;;;;5.22;88.47;101475.50;5115273;28;20233;-65
2022/01/10 09:22:21;;;;;;;30.25;16.98;;;;;;;5.00;88.12;101488.41;5103711;28;20050;-66
2022/01/10 09:24:49;;;;;;;27.17;15.95;;;;;;;5.18;88.22;101486.13;5104170;28;20043;-66
2022/01/10 09:27:16;;;;;;;27.38;15.38;;;;;;;5.01;88.72;101490.88;5107237;28;20040;-68
2022/01/10 09:29:46;;;;;;;27.33;16.42;;;;;;;5.01;88.69;101490.88;5101253;28;20052;-66
2022/01/10 09:32:13;;;;;;;28.42;16.58;;;;;;;5.17;88.75;101491.84;5108288;28;20036;-66
2022/01/10 09:34:41;;;;;;;27.60;16.48;;;;;;;5.27;87.43;101500.13;5110415;28;20047;-67
2022/01/10 09:37:08;;;;;;;30.67;16.50;;;;;;;5.22;87.58;101497.38;5096191;28;20048;-66
2022/01/10 09:39:36;;;;;;;28.58;16.25;;;;;;;5.33;87.18;101499.94;5103487;28;20063;-67
2022/01/10 09:42:03;;;;;;;29.17;16.48;;;;;;;5.41;86.45;101501.34;5106140;28;20044;-66
2022/01/10 09:44:31;;;;;;;28.10;15.35;;;;;;;5.27;87.20;101506.44;5095720;28;20040;-66
2022/01/10 09:46:58;;;;;;;31.95;17.35;;;;;;;5.06;87.72;101509.22;5093821;28;20048;-67
2022/01/10 09:49:25;;;;;;;26.38;16.45;;;;;;;5.15;88.16;101511.25;5115141;28;20059;-67
2022/01/10 09:51:53;;;;;;;29.77;17.73;;;;;;;5.15;87.21;101519.44;5112853;28;20059;-67
2022/01/10 09:54:20;;;;;;;33.67;17.67;;;;;;;5.13;88.14;101518.03;5096656;28;20047;-65
2022/01/10 09:56:49;;;;;;;28.20;17.85;;;;;;;5.48;88.03;101524.66;5101400;28;20147;-66
2022/01/10 09:59:16;;;;;;;33.30;17.67;;;;;;;5.54;87.35;101534.53;5100788;28;20048;-66
2022/01/10 10:01:49;;;;;;;28.05;17.10;;;;;;;5.47;87.82;101546.78;5102913;28;20047;-68
2022/01/10 10:04:19;;;;;;;30.50;17.40;;;;;;;5.41;87.42;101553.25;5097232;28;20046;-67
2022/01/10 10:06:46;;;;;;;29.63;17.08;;;;;;;5.50;87.19;101552.56;5113480;28;20048;-67
2022/01/10 10:09:14;;;;;;;32.65;17.63;;;;;;;5.71;87.42;101551.63;5100963;28;20047;-66
2022/01/10 10:11:44;;;;;;;30.50;16.60;;;;;;;5.69;87.11;101558.44;5098387;28;20055;-66
2022/01/10 10:14:13;;;;;;;26.70;16.75;;;;;;;5.44;87.19;101560.97;5104993;28;20515;-66
2022/01/10 10:16:48;;;;;;;31.65;18.00;;;;;;;5.52;87.24;101564.03;5097873;28;20055;-67
2022/01/10 10:19:17;;;;;;;31.50;18.52;;;;;;;5.92;85.75;101562.75;5100212;28;20048;-65
2022/01/10 10:21:44;;;;;;;33.85;17.35;;;;;;;5.73;86.43;101565.03;5100873;28;20074;-66
2022/01/10 10:24:13;;;;;;;32.47;18.75;;;;;;;5.60;87.31;101562.72;5100066;28;20055;-68
2022/01/10 10:26:40;;;;;;;36.00;17.75;;;;;;;5.70;87.52;101571.84;5103540;28;20044;-65
2022/01/10 10:29:13;;;;;;;34.00;18.98;;;;;;;5.91;86.51;101572.84;5095594;28;20039;-66
2022/01/10 10:31:45;;;;;;;33.85;19.50;;;;;;;5.83;86.24;101573.34;5094137;28;20040;-67
2022/01/10 10:34:27;;;;;;;36.50;20.35;;;;;;;5.84;86.38;101572.25;5093232;28;20048;-66
2022/01/10 10:37:12;;;;;;;38.50;19.65;;;;;;;5.64;86.53;101581.09;5098183;28;20077;-66
2022/01/10 10:39:43;;;;;;;35.05;19.52;;;;;;;6.00;86.68;101578.69;5106945;28;20047;-66
2022/01/10 10:42:14;;;;;;;36.67;18.85;;;;;;;5.95;87.07;101582.19;5101762;28;20036;-65
2022/01/10 10:44:42;;;;;;;41.13;20.35;;;;;;;5.97;87.09;101576.47;5106417;28;20040;-66
2022/01/10 10:47:16;;;;;;;37.13;20.65;;;;;;;5.98;86.79;101575.38;5097343;28;20375;-66
2022/01/10 10:49:50;;;;;;;43.88;22.08;;;;;;;6.11;86.39;101583.97;5101635;28;20052;-67
2022/01/10 10:52:17;;;;;;;40.92;21.65;;;;;;;5.90;86.53;101590.34;5099569;28;20052;-67
2022/01/10 10:54:44;;;;;;;42.35;21.95;;;;;;;5.85;87.18;101590.31;5094025;28;20039;-66
2022/01/10 10:57:14;;;;;;;44.92;22.63;;;;;;;5.99;87.46;101597.00;5077233;28;20053;-66
2022/01/10 10:59:43;;;;;;;48.38;23.85;;;;;;;5.99;87.04;101591.53;5093671;28;20052;-66
2022/01/10 11:02:11;;;;;;;;;;;;;;;6.22;86.82;101591.16;5101113;28;20123;-66
2022/01/10 11:04:40;;;;;;;42.88;21.88;;;;;;;6.49;86.46;101600.06;5134475;28;19926;-66
2022/01/10 11:07:09;;;;;;;44.55;22.23;;;;;;;6.20;86.04;101600.69;5117128;28;20048;-67
2022/01/10 11:09:56;;;;;;;45.20;23.08;;;;;;;6.35;85.59;101604.38;5108838;28;20632;-67
2022/01/10 11:12:24;;;;;;;47.80;24.05;;;;;;;6.23;85.27;101609.22;5097772;28;20055;-66
2022/01/10 11:14:52;;;;;;;51.13;24.23;;;;;;;6.22;85.74;101614.94;5108652;28;20059;-67
2022/01/10 11:17:20;;;;;;;44.88;23.63;;;;;;;6.06;86.22;101605.81;5094352;28;20044;-67
2022/01/10 11:20:18;;;;;;;44.03;23.48;;;;;;;6.25;86.47;101598.00;5092289;28;20043;-66
2022/01/10 11:22:51;;;;;;;51.42;25.33;;;;;;;6.35;85.38;101595.31;5091939;28;20051;-67
2022/01/10 11:25:27;;;;;;;79.32;36.05;;;;;;;6.62;85.45;101605.09;5097816;28;20056;-66
2022/01/10 11:27:57;;;;;;;52.05;25.92;;;;;;;6.33;85.03;101608.47;5113805;28;20043;-66
2022/01/10 11:30:25;;;;;;;;;;;;;;;6.17;86.41;101612.97;5126526;28;20055;-67
2022/01/10 11:33:03;;;;;;;48.72;23.52;;;;;;;6.20;85.70;101615.22;5098610;28;19924;-66
2022/01/10 11:36:04;;;;;;;52.25;23.90;;;;;;;6.21;85.69;101629.69;5097006;28;20490;-66
2022/01/10 11:38:36;;;;;;;47.25;21.85;;;;;;;6.24;85.69;101621.78;5093326;28;20613;-66
2022/01/10 11:41:12;;;;;;;48.45;22.05;;;;;;;6.26;85.02;101625.09;5092390;28;20055;-65